Time;durP1;ratioP1;P1;durP2;ratioP2;P2;SDS_P1;SDS_P2;PMS_P1;PMS_P2;Temp;Humidity;BMP_temperature;BMP_pressure;BME280_temperature;BME280_humidity;BME280_pressure;Samples;Min_cycle;Max_cycle;Signal;HPM_P1;HPM_P2
2022/06/24 00:00:33;;;;;;;14.07;2.95;;;;;;;16.23;44.50;99639.09;5016744;28;20536;-69
2022/06/24 00:02:59;;;;;;;17.52;3.13;;;;;;;16.14;45.33;99641.00;5005450;28;20037;-73
2022/06/24 00:05:28;;;;;;;11.77;3.47;;;;;;;16.08;45.60;99651.34;5006548;28;20400;-72
2022/06/24 00:07:54;;;;;;;17.30;2.65;;;;;;;16.08;45.86;99650.53;5024702;28;20155;-72
2022/06/24 00:10:22;;;;;;;15.85;2.90;;;;;;;16.07;45.83;99643.38;5023804;28;20042;-72
2022/06/24 00:12:49;;;;;;;14.77;2.97;;;;;;;16.03;45.74;99645.97;5024123;28;20103;-73
2022/06/24 00:15:24;;;;;;;14.75;2.60;;;;;;;16.02;46.01;99656.19;5024893;28;20045;-72
2022/06/24 00:17:51;;;;;;;16.02;2.38;;;;;;;15.96;45.84;99649.19;5015271;28;20053;-72
2022/06/24 00:20:19;;;;;;;7.60;2.30;;;;;;;15.94;45.63;99650.59;5005999;28;20049;-70
2022/06/24 00:22:46;;;;;;;5.85;2.00;;;;;;;15.92;44.78;99656.47;4995958;28;20048;-71
2022/06/24 00:25:14;;;;;;;7.38;2.05;;;;;;;15.90;44.90;99666.16;5007192;28;20053;-72
2022/06/24 00:27:42;;;;;;;9.57;2.38;;;;;;;15.85;44.74;99661.56;5004470;28;20069;-71
2022/06/24 00:30:10;;;;;;;6.50;1.88;;;;;;;15.84;44.68;99665.44;5017437;28;20086;-72
2022/06/24 00:32:38;;;;;;;13.30;2.50;;;;;;;15.84;44.42;99660.75;5006570;28;20049;-71
2022/06/24 00:35:07;;;;;;;16.27;2.78;;;;;;;15.82;44.65;99662.97;5005973;28;20049;-73
2022/06/24 00:37:34;;;;;;;16.33;2.88;;;;;;;15.82;45.04;99675.97;5005769;28;20536;-73
2022/06/24 00:40:02;;;;;;;22.92;3.17;;;;;;;15.72;45.47;99657.75;5021758;28;20050;-73
2022/06/24 00:42:31;;;;;;;53.97;6.03;;;;;;;15.78;45.73;99677.72;5023766;28;20140;-68
2022/06/24 00:45:07;;;;;;;58.30;6.32;;;;;;;15.77;46.24;99682.41;5004964;28;20060;-68
2022/06/24 00:47:35;;;;;;;61.37;7.20;;;;;;;15.78;46.49;99683.25;5020956;28;20081;-68
2022/06/24 00:50:15;;;;;;;66.05;6.53;;;;;;;15.81;46.83;99688.13;5003253;28;20589;-68
2022/06/24 00:52:42;;;;;;;99.53;7.05;;;;;;;15.78;46.64;99694.25;5006605;28;20439;-68
2022/06/24 00:55:08;;;;;;;67.57;6.50;;;;;;;15.71;46.90;99694.69;5006821;28;20049;-68
2022/06/24 00:57:35;;;;;;;58.72;6.47;;;;;;;15.67;46.93;99700.00;5007519;28;20046;-68
2022/06/24 01:00:01;;;;;;;45.07;5.73;;;;;;;15.64;47.47;99699.81;5027219;28;20045;-67
2022/06/24 01:02:30;;;;;;;48.60;5.93;;;;;;;15.63;47.41;99695.44;5025551;28;20050;-67
2022/06/24 01:05:05;;;;;;;47.80;4.72;;;;;;;15.62;47.43;99691.03;5025849;28;20133;-68
2022/06/24 01:07:31;;;;;;;51.40;4.97;;;;;;;15.61;47.66;99695.75;5025103;28;20157;-66
2022/06/24 01:09:58;;;;;;;37.53;4.28;;;;;;;15.64;47.44;99695.13;5014393;28;20058;-68
2022/06/24 01:12:24;;;;;;;50.00;5.15;;;;;;;15.67;47.30;99694.50;5007135;28;20497;-72
2022/06/24 01:14:50;;;;;;;53.67;5.93;;;;;;;15.67;47.55;99686.22;4988326;28;20062;-72
2022/06/24 01:17:16;;;;;;;26.33;3.78;;;;;;;15.63;47.96;99690.75;4990111;28;20112;-71
2022/06/24 01:19:42;;;;;;;38.50;5.03;;;;;;;15.68;48.25;99701.63;5009051;28;20049;-73
2022/06/24 01:22:11;;;;;;;26.25;5.22;;;;;;;15.67;48.59;99697.25;5007534;28;20046;-72
2022/06/24 01:24:37;;;;;;;27.67;4.68;;;;;;;15.68;48.90;99701.63;5009502;28;20062;-72
2022/06/24 01:27:04;;;;;;;22.73;4.07;;;;;;;15.73;49.08;99701.50;5003542;28;20465;-72
2022/06/24 01:29:30;;;;;;;21.90;3.75;;;;;;;15.82;48.95;99700.78;5004364;28;20042;-73
2022/06/24 01:31:56;;;;;;;22.77;3.40;;;;;;;15.83;49.02;99699.66;5015606;28;20077;-73
2022/06/24 01:34:24;;;;;;;27.50;4.03;;;;;;;15.90;49.01;99704.75;5020388;28;20070;-72
2022/06/24 01:36:53;;;;;;;28.17;4.15;;;;;;;15.91;48.96;99698.91;5007152;28;20068;-72
2022/06/24 01:39:23;;;;;;;22.85;3.60;;;;;;;15.88;49.40;99699.50;4989856;28;20053;-68
2022/06/24 01:41:50;;;;;;;18.73;4.07;;;;;;;15.84;49.70;99696.59;5015115;28;20042;-67
2022/06/24 01:44:16;;;;;;;21.77;4.10;;;;;;;15.81;49.69;99699.16;5009534;28;20559;-67
2022/06/24 01:46:42;;;;;;;18.02;3.55;;;;;;;15.89;50.20;99706.69;5023859;28;20045;-67
2022/06/24 01:49:08;;;;;;;14.48;3.65;;;;;;;16.00;50.45;99713.59;5027118;28;20045;-68
2022/06/24 01:51:36;;;;;;;22.27;4.13;;;;;;;16.04;50.28;99711.03;5024429;28;20045;-67
2022/06/24 01:54:02;;;;;;;17.55;4.60;;;;;;;16.12;50.37;99715.75;5018513;28;20042;-67
2022/06/24 01:56:30;;;;;;;20.05;3.55;;;;;;;16.15;50.27;99714.34;4988250;28;20041;-68
2022/06/24 01:58:55;;;;;;;;;;;;;;;16.20;50.15;99713.41;5004720;28;20429;-67
2022/06/24 02:01:21;;;;;;;26.70;4.00;;;;;;;16.25;50.03;99724.28;5008033;28;19951;-66
2022/06/24 02:03:48;;;;;;;21.02;4.85;;;;;;;16.20;50.13;99705.91;5006636;28;20056;-68
2022/06/24 02:06:14;;;;;;;19.95;4.00;;;;;;;16.27;50.12;99706.31;5005946;28;20076;-67
2022/06/24 02:08:41;;;;;;;16.70;3.80;;;;;;;16.23;50.51;99723.78;4988749;28;20280;-73
2022/06/24 02:13:57;;;;;;;17.60;3.70;;;;;;;16.34;50.51;99707.78;5003446;28;20328;-72
2022/06/24 02:16:23;;;;;;;24.75;4.40;;;;;;;16.40;50.15;99704.56;5003355;28;20068;-72
2022/06/24 02:18:50;;;;;;;34.05;4.35;;;;;;;16.44;50.33;99708.31;5004965;28;20146;-72
2022/06/24 02:21:16;;;;;;;36.85;4.53;;;;;;;16.54;49.82;99707.22;5004894;28;20058;-73
2022/06/24 02:23:43;;;;;;;41.97;5.15;;;;;;;16.60;49.46;99716.19;5003687;28;20160;-72
2022/06/24 02:26:09;;;;;;;42.10;5.57;;;;;;;16.67;49.47;99712.97;5002513;28;20053;-72
2022/06/24 02:28:36;;;;;;;63.35;5.10;;;;;;;16.70;49.28;99715.94;5007736;28;20060;-72
2022/06/24 02:31:03;;;;;;;38.97;5.72;;;;;;;16.72;49.43;99715.63;5005286;28;20072;-72
2022/06/24 02:33:30;;;;;;;28.42;4.72;;;;;;;16.71;49.22;99714.00;5022564;28;20061;-72
2022/06/24 02:35:56;;;;;;;24.17;4.20;;;;;;;16.72;49.10;99718.38;5003779;28;20050;-73
2022/06/24 02:38:22;;;;;;;28.38;4.45;;;;;;;16.75;49.08;99719.66;5005277;28;20077;-72
2022/06/24 02:40:49;;;;;;;20.42;3.75;;;;;;;16.70;48.67;99709.56;5003205;28;20075;-72
2022/06/24 02:43:17;;;;;;;14.80;3.47;;;;;;;16.81;49.08;99713.69;5009704;28;20145;-73
2022/06/24 02:45:44;;;;;;;17.92;4.28;;;;;;;16.90;48.51;99722.00;5019652;28;20053;-71
2022/06/24 02:48:12;;;;;;;14.05;3.38;;;;;;;16.94;48.91;99727.72;5024854;28;20045;-71
2022/06/24 02:50:40;;;;;;;14.93;3.67;;;;;;;17.01;48.61;99722.56;5020190;28;20108;-72
2022/06/24 02:53:07;;;;;;;16.38;3.85;;;;;;;17.08;48.41;99727.59;5021079;28;20532;-73
2022/06/24 02:55:33;;;;;;;13.80;3.10;;;;;;;17.13;47.85;99738.53;5020330;28;20057;-73
2022/06/24 02:57:59;;;;;;;21.48;3.67;;;;;;;17.20;47.61;99736.09;5021332;28;20045;-71
2022/06/24 03:00:26;;;;;;;16.38;3.75;;;;;;;17.24;47.80;99728.78;5003699;28;20060;-72
2022/06/24 03:02:52;;;;;;;15.93;4.45;;;;;;;17.26;47.47;99734.84;5003045;28;20165;-72
2022/06/24 03:05:19;;;;;;;16.70;4.03;;;;;;;17.27;47.55;99730.09;5004330;28;20076;-73
2022/06/24 03:07:46;;;;;;;17.25;3.55;;;;;;;17.31;47.48;99739.38;4986925;28;20046;-72
2022/06/24 03:10:12;;;;;;;15.10;3.58;;;;;;;17.34;47.58;99738.75;5018313;28;20119;-71
2022/06/24 03:12:38;;;;;;;11.15;3.58;;;;;;;17.38;47.41;99741.66;5020942;28;20056;-73
2022/06/24 03:15:05;;;;;;;13.07;3.72;;;;;;;17.43;47.08;99739.56;5023608;28;20045;-73
2022/06/24 03:17:31;;;;;;;15.55;3.40;;;;;;;17.48;47.15;99737.78;5024366;28;20053;-72
2022/06/24 03:19:57;;;;;;;18.80;3.60;;;;;;;17.53;47.33;99743.16;5019908;28;20088;-73
2022/06/24 03:22:25;;;;;;;13.85;3.42;;;;;;;17.59;47.01;99736.31;5008394;28;20042;-72
2022/06/24 03:24:52;;;;;;;17.52;3.80;;;;;;;17.68;47.17;99744.63;5012433;28;20049;-71
2022/06/24 03:27:18;;;;;;;12.35;3.72;;;;;;;17.72;47.01;99740.91;5025198;28;20575;-72
2022/06/24 03:29:44;;;;;;;14.50;3.17;;;;;;;17.77;46.48;99742.69;5023629;28;20132;-72
2022/06/24 03:32:10;;;;;;;11.95;3.17;;;;;;;17.86;46.08;99753.75;5024555;28;20042;-68
2022/06/24 03:34:36;;;;;;;13.90;3.10;;;;;;;17.92;45.51;99754.41;5022841;28;20153;-69
2022/06/24 03:37:03;;;;;;;15.90;3.00;;;;;;;17.95;45.51;99754.56;5021847;28;20038;-68
2022/06/24 03:39:30;;;;;;;11.17;3.10;;;;;;;18.01;45.30;99760.72;5024947;28;20046;-68
2022/06/24 03:41:56;;;;;;;19.05;4.30;;;;;;;18.05;44.90;99753.47;5023828;28;20077;-68
2022/06/24 03:44:22;;;;;;;28.40;6.90;;;;;;;18.11;45.01;99754.91;5018173;28;20528;-68
2022/06/24 03:46:48;;;;;;;22.15;6.85;;;;;;;18.18;45.01;99756.34;4984995;28;20153;-69
2022/06/24 03:49:15;;;;;;;21.38;4.15;;;;;;;18.23;45.04;99753.44;5003657;28;20125;-68
2022/06/24 03:51:41;;;;;;;12.75;3.30;;;;;;;18.28;45.24;99751.31;5002176;28;20069;-68
2022/06/24 03:54:07;;;;;;;27.98;3.75;;;;;;;18.38;44.98;99761.22;5003396;28;20057;-69
2022/06/24 03:56:35;;;;;;;25.40;4.13;;;;;;;18.46;44.58;99756.00;5005021;28;20371;-68
2022/06/24 03:59:01;;;;;;;;;;;;;;;18.51;44.71;99762.16;5006184;28;20090;-67
2022/06/24 04:01:27;;;;;;;24.50;4.90;;;;;;;18.56;44.48;99755.66;5002368;28;19972;-69
2022/06/24 04:03:53;;;;;;;30.08;4.50;;;;;;;18.64;44.25;99765.88;5003128;28;20514;-70
2022/06/24 04:06:19;;;;;;;18.45;3.67;;;;;;;18.70;44.19;99763.75;5009551;28;20041;-68
2022/06/24 04:08:45;;;;;;;16.73;3.33;;;;;;;18.75;44.22;99758.03;5021948;28;20054;-67
2022/06/24 04:11:12;;;;;;;14.32;3.40;;;;;;;18.79;43.94;99766.47;5014212;28;20048;-68
2022/06/24 04:13:40;;;;;;;16.00;3.70;;;;;;;18.81;44.17;99773.31;5027485;28;20054;-68
2022/06/24 04:16:07;;;;;;;11.60;2.63;;;;;;;18.84;43.89;99758.00;5038593;28;20048;-67
2022/06/24 04:18:33;;;;;;;10.18;2.80;;;;;;;18.92;43.55;99767.41;5003052;28;20050;-69
2022/06/24 04:21:00;;;;;;;10.10;2.72;;;;;;;18.97;43.45;99767.22;5004070;28;20049;-68
2022/06/24 04:23:26;;;;;;;9.80;2.70;;;;;;;19.05;43.63;99766.41;5003243;28;20489;-69
2022/06/24 04:25:53;;;;;;;11.88;2.75;;;;;;;19.13;43.18;99764.75;5002630;28;20416;-69
2022/06/24 04:28:19;;;;;;;15.88;5.40;;;;;;;19.20;43.25;99769.75;5011314;28;20084;-68
2022/06/24 04:30:47;;;;;;;14.57;3.00;;;;;;;19.29;42.69;99767.75;5020884;28;21038;-68
2022/06/24 04:33:13;;;;;;;;;;;;;;;19.38;42.72;99771.31;5013746;28;20115;-72
2022/06/24 04:35:40;;;;;;;18.48;3.35;;;;;;;19.44;42.52;99768.31;5002506;28;20397;-73
2022/06/24 04:38:06;;;;;;;16.85;2.45;;;;;;;19.50;42.60;99769.75;5004772;28;20148;-72
2022/06/24 04:40:32;;;;;;;11.35;2.70;;;;;;;19.56;41.96;99768.41;5001828;28;20065;-71
2022/06/24 04:42:58;;;;;;;9.52;2.50;;;;;;;19.53;41.59;99761.56;5003967;28;20050;-70
2022/06/24 04:45:24;;;;;;;15.98;2.47;;;;;;;19.55;41.62;99764.81;5005568;28;20041;-68
2022/06/24 04:47:51;;;;;;;13.10;2.00;;;;;;;19.59;41.54;99758.59;5002310;28;20042;-68
2022/06/24 04:50:17;;;;;;;;;;;;;;;19.67;41.38;99766.88;5016322;28;20544;-68
2022/06/24 04:52:43;;;;;;;11.70;2.08;;;;;;;19.75;40.77;99761.59;5021988;28;19932;-69
2022/06/24 04:55:09;;;;;;;12.50;2.30;;;;;;;19.79;40.88;99754.22;5020571;28;20060;-70
2022/06/24 04:57:38;;;;;;;11.63;2.03;;;;;;;19.84;40.82;99754.03;5021752;28;20838;-68
2022/06/24 05:00:06;;;;;;;7.97;2.10;;;;;;;19.87;40.10;99758.88;5015141;28;20112;-72
2022/06/24 05:02:32;;;;;;;9.90;2.20;;;;;;;19.91;39.73;99757.06;5016339;28;20059;-73
2022/06/24 05:05:00;;;;;;;12.23;2.33;;;;;;;19.96;39.56;99758.84;5006503;28;20080;-73
2022/06/24 05:07:26;;;;;;;7.80;2.30;;;;;;;20.09;38.91;99757.75;5032126;28;20469;-69
2022/06/24 05:09:52;;;;;;;11.45;2.08;;;;;;;20.19;39.04;99752.91;5011124;28;20054;-68
2022/06/24 05:12:18;;;;;;;6.45;2.17;;;;;;;20.24;39.12;99752.72;4998323;28;20096;-70
2022/06/24 05:14:44;;;;;;;7.40;2.28;;;;;;;20.26;39.22;99756.75;4981462;28;20104;-68
2022/06/24 05:17:10;;;;;;;10.32;2.20;;;;;;;;;;4998558;28;20046;-69
2022/06/24 05:19:36;;;;;;;8.75;2.05;;;;;;;20.35;39.00;99762.22;5005041;28;20072;-69
2022/06/24 05:22:05;;;;;;;8.52;2.10;;;;;;;20.40;38.77;99758.44;5028668;28;20042;-68
2022/06/24 05:24:30;;;;;;;11.55;1.88;;;;;;;20.47;38.57;99757.88;5029071;28;20065;-69
2022/06/24 05:26:56;;;;;;;8.77;2.20;;;;;;;20.56;38.46;99761.38;5027295;28;20135;-69
2022/06/24 05:29:23;;;;;;;17.50;2.05;;;;;;;20.61;38.34;99766.69;5029251;28;20182;-73
2022/06/24 05:31:49;;;;;;;11.65;2.47;;;;;;;20.66;38.31;99766.47;5026360;28;20388;-71
2022/06/24 05:34:15;;;;;;;9.10;2.00;;;;;;;20.67;38.40;99756.97;5028375;28;20128;-72
2022/06/24 05:36:42;;;;;;;8.55;2.15;;;;;;;20.76;38.66;99759.69;5026120;28;20493;-72
2022/06/24 05:39:10;;;;;;;7.68;1.90;;;;;;;20.75;38.58;99746.13;5025460;28;20046;-72
2022/06/24 05:41:41;;;;;;;11.40;2.58;;;;;;;20.89;38.89;99762.47;4997998;28;20038;-72
2022/06/24 05:44:08;;;;;;;20.20;2.90;;;;;;;20.92;38.15;99756.25;5013602;28;20053;-69
2022/06/24 05:46:34;;;;;;;7.60;1.77;;;;;;;20.92;38.32;99765.38;5006620;28;20050;-68
2022/06/24 05:49:00;;;;;;;9.52;2.15;;;;;;;20.98;37.83;99765.97;5018756;28;20153;-68
2022/06/24 05:51:26;;;;;;;10.68;2.03;;;;;;;21.01;37.71;99767.25;5013347;28;20076;-69
2022/06/24 05:56:38;;;;;;;9.77;2.20;;;;;;;21.04;37.73;99763.78;5016551;28;20042;-69
2022/06/24 05:59:05;;;;;;;9.80;2.63;;;;;;;21.05;37.79;99762.63;5022770;28;20611;-68
2022/06/24 06:01:31;;;;;;;12.20;2.80;;;;;;;21.09;37.69;99758.81;5024249;28;20049;-69
2022/06/24 06:03:57;;;;;;;13.70;3.42;;;;;;;21.10;38.03;99746.53;5012683;28;20136;-68
2022/06/24 06:06:23;;;;;;;19.83;5.47;;;;;;;21.19;38.13;99751.16;5007680;28;20492;-68
2022/06/24 06:08:49;;;;;;;16.50;3.60;;;;;;;21.25;38.04;99758.91;5014201;28;20132;-68
2022/06/24 06:11:18;;;;;;;8.05;2.50;;;;;;;20.96;37.23;99710.72;5017165;28;20133;-68
2022/06/24 06:13:47;;;;;;;7.93;2.65;;;;;;;21.19;37.16;99742.81;5017153;28;20045;-71
2022/06/24 06:16:14;;;;;;;6.70;2.00;;;;;;;21.17;36.99;99747.91;5007373;28;20492;-69
2022/06/24 06:18:40;;;;;;;11.18;1.80;;;;;;;21.16;36.60;99746.28;5007510;28;20133;-68
2022/06/24 06:21:08;;;;;;;13.33;2.00;;;;;;;21.19;37.15;99746.41;5005562;28;20072;-69
2022/06/24 06:23:35;;;;;;;11.00;2.38;;;;;;;21.33;37.20;99745.25;5011794;28;20585;-68
2022/06/24 06:26:02;;;;;;;21.25;4.15;;;;;;;21.48;36.81;99733.41;5028300;28;20540;-69
2022/06/24 06:28:28;;;;;;;9.27;2.10;;;;;;;21.61;36.75;99738.91;5026352;28;20058;-68
2022/06/24 06:30:56;;;;;;;14.10;2.85;;;;;;;21.81;36.32;99751.06;5018143;28;20045;-69
2022/06/24 06:33:22;;;;;;;14.98;2.70;;;;;;;21.92;35.88;99731.91;5012651;28;20585;-69
2022/06/24 06:35:48;;;;;;;7.28;1.92;;;;;;;22.10;35.83;99737.97;5025517;28;20144;-68
2022/06/24 06:38:15;;;;;;;11.50;2.20;;;;;;;22.24;35.77;99730.03;5006572;28;20046;-69
2022/06/24 06:40:42;;;;;;;8.90;2.28;;;;;;;22.40;35.51;99745.97;5010652;28;20145;-68
2022/06/24 06:43:09;;;;;;;11.13;2.00;;;;;;;22.53;35.49;99741.16;5005942;28;20053;-70
2022/06/24 06:45:36;;;;;;;5.22;1.90;;;;;;;22.56;35.43;99740.47;5011268;28;20811;-73
2022/06/24 06:48:05;;;;;;;7.95;1.98;;;;;;;22.64;35.44;99742.25;5015066;28;20455;-74
2022/06/24 06:50:32;;;;;;;8.70;2.17;;;;;;;22.64;35.00;99725.53;5018084;28;20045;-73
2022/06/24 06:52:58;;;;;;;9.15;2.58;;;;;;;22.71;34.84;99736.06;5025657;28;20118;-74
2022/06/24 06:55:24;;;;;;;10.27;2.28;;;;;;;22.82;35.06;99744.66;5004595;28;20460;-69
2022/06/24 06:57:51;;;;;;;14.80;2.20;;;;;;;22.90;34.64;99743.69;5020376;28;20490;-69
2022/06/24 07:00:18;;;;;;;9.60;1.88;;;;;;;22.94;34.92;99741.81;5016708;28;20489;-68
2022/06/24 07:02:44;;;;;;;14.20;1.92;;;;;;;22.85;34.62;99732.81;5023008;28;20049;-68
2022/06/24 07:05:11;;;;;;;8.95;2.05;;;;;;;22.79;34.43;99735.06;5014840;28;20052;-68
2022/06/24 07:07:37;;;;;;;7.75;1.77;;;;;;;22.87;34.55;99735.25;5023027;28;20059;-73
2022/06/24 07:10:04;;;;;;;9.80;1.90;;;;;;;23.08;34.32;99732.16;5001906;28;20054;-72
2022/06/24 07:12:31;;;;;;;12.45;2.55;;;;;;;23.33;34.00;99741.16;5010028;28;20045;-72
2022/06/24 07:14:57;;;;;;;6.87;2.47;;;;;;;23.42;33.83;99729.00;5029360;28;20099;-68
2022/06/24 07:17:23;;;;;;;16.65;2.40;;;;;;;23.35;33.61;99735.22;5020549;28;20422;-69
2022/06/24 07:19:49;;;;;;;30.23;2.60;;;;;;;23.39;33.77;99736.09;5026223;28;20140;-68
2022/06/24 07:22:16;;;;;;;5.65;2.00;;;;;;;23.38;33.78;99734.50;5026358;28;20058;-68
2022/06/24 07:24:44;;;;;;;8.65;2.47;;;;;;;23.49;33.39;99740.31;5027448;28;20045;-68
2022/06/24 07:27:11;;;;;;;8.98;1.92;;;;;;;23.72;33.27;99742.38;5025301;28;22501;-68
2022/06/24 07:29:37;;;;;;;;;;;;;;;23.89;33.10;99735.56;5027532;28;20046;-68
2022/06/24 07:32:06;;;;;;;5.77;2.03;;;;;;;23.99;32.68;99742.53;5025388;28;19931;-69
2022/06/24 07:34:33;;;;;;;5.78;2.05;;;;;;;24.04;32.70;99728.31;5014648;28;20514;-69
2022/06/24 07:37:00;;;;;;;7.22;2.00;;;;;;;24.01;32.72;99746.59;5013605;28;20100;-70
2022/06/24 07:39:27;;;;;;;4.35;1.77;;;;;;;24.07;32.57;99733.97;5025899;28;20045;-69
2022/06/24 07:41:54;;;;;;;7.05;1.90;;;;;;;24.35;32.54;99727.31;5022332;28;20108;-69
2022/06/24 07:44:20;;;;;;;12.18;2.40;;;;;;;24.49;32.37;99739.94;5020623;28;20064;-70
2022/06/24 07:46:46;;;;;;;10.15;2.20;;;;;;;24.68;32.34;99727.09;5019696;28;20140;-69
2022/06/24 07:49:12;;;;;;;7.93;2.20;;;;;;;24.97;31.87;99724.78;5001989;28;20053;-69
2022/06/24 07:51:39;;;;;;;15.80;2.37;;;;;;;25.27;31.51;99730.44;5011836;28;20319;-72
2022/06/24 07:54:07;;;;;;;5.03;2.00;;;;;;;25.50;31.36;99729.59;5020496;28;20091;-73
2022/06/24 07:59:20;;;;;;;15.63;2.10;;;;;;;26.07;30.63;99717.53;5012505;28;20073;-73
2022/06/24 08:01:46;;;;;;;7.50;2.20;;;;;;;26.15;30.49;99724.81;5022480;28;20056;-73
2022/06/24 08:04:14;;;;;;;15.65;2.17;;;;;;;26.12;30.33;99721.97;5025776;28;20084;-74
2022/06/24 08:06:46;;;;;;;22.40;2.35;;;;;;;25.71;30.43;99719.88;5025077;28;20049;-73
2022/06/24 08:09:12;;;;;;;8.25;2.33;;;;;;;25.77;30.13;99723.97;5024908;28;20559;-73
2022/06/24 08:11:40;;;;;;;6.78;2.10;;;;;;;25.97;29.84;99721.00;5015814;28;20139;-69
2022/06/24 08:14:06;;;;;;;6.28;2.28;;;;;;;26.16;30.29;99712.41;5014721;28;20465;-72
2022/06/24 08:16:32;;;;;;;8.68;2.20;;;;;;;26.57;29.72;99717.25;5022408;28;20053;-73
2022/06/24 08:18:58;;;;;;;8.02;2.00;;;;;;;26.73;29.36;99722.59;5017200;28;20135;-73
2022/06/24 08:21:25;;;;;;;7.07;2.35;;;;;;;26.57;29.60;99699.63;5035986;28;20152;-67
2022/06/24 08:23:51;;;;;;;8.75;2.00;;;;;;;26.93;29.23;99715.97;5022206;28;20552;-69
2022/06/24 08:26:19;;;;;;;11.13;2.60;;;;;;;26.59;29.79;99708.47;4739731;28;10000958;-69
2022/06/24 08:28:46;;;;;;;14.88;2.40;;;;;;;26.26;29.91;99698.94;5014261;28;20285;-68
2022/06/24 08:31:13;;;;;;;10.93;2.00;;;;;;;26.14;30.27;99705.56;5016140;28;20056;-70
2022/06/24 08:33:39;;;;;;;11.03;2.60;;;;;;;26.35;29.64;99707.03;5020058;28;20524;-70
2022/06/24 08:36:05;;;;;;;7.95;2.20;;;;;;;26.70;29.21;99711.34;5018187;28;20045;-68
2022/06/24 08:38:31;;;;;;;9.07;2.33;;;;;;;26.79;28.84;99716.63;5021057;28;20068;-68
2022/06/24 08:41:03;;;;;;;8.07;2.47;;;;;;;26.55;29.67;99713.22;5016532;28;20420;-68
2022/06/24 08:43:31;;;;;;;9.73;3.08;;;;;;;26.22;30.04;99718.50;5021973;28;20037;-69
2022/06/24 08:45:59;;;;;;;9.55;2.30;;;;;;;26.67;29.70;99707.31;5026352;28;20599;-68
2022/06/24 08:48:26;;;;;;;8.35;2.47;;;;;;;27.35;28.34;99705.44;5019885;28;20195;-67
2022/06/24 08:50:52;;;;;;;12.30;2.58;;;;;;;27.18;28.85;99707.75;5021181;28;20087;-69
2022/06/24 08:53:21;;;;;;;5.87;2.37;;;;;;;27.71;28.20;99691.59;5025964;28;20056;-69
2022/06/24 08:55:50;;;;;;;10.90;2.10;;;;;;;27.40;28.56;99691.84;5029028;28;20049;-70
2022/06/24 08:58:18;;;;;;;7.00;2.10;;;;;;;26.59;29.29;99692.44;5011205;28;20045;-69
2022/06/24 09:00:44;;;;;;;10.43;2.55;;;;;;;27.08;28.82;99694.44;5022854;28;20046;-68
2022/06/24 09:03:12;;;;;;;5.47;2.20;;;;;;;27.97;28.15;99696.09;5027882;28;20071;-69
2022/06/24 09:05:40;;;;;;;7.47;2.63;;;;;;;28.79;26.77;99691.00;5024426;28;20052;-68
2022/06/24 09:08:08;;;;;;;6.70;2.20;;;;;;;29.22;26.27;99700.63;5023286;28;20389;-69
2022/06/24 09:10:36;;;;;;;8.23;2.28;;;;;;;28.96;26.13;99699.88;5006151;28;20072;-73
2022/06/24 09:13:03;;;;;;;10.02;2.28;;;;;;;28.01;27.79;99699.72;4997406;28;20075;-73
2022/06/24 09:15:29;;;;;;;12.05;2.70;;;;;;;27.30;28.50;99690.56;5014352;28;20084;-72
2022/06/24 09:17:56;;;;;;;11.30;2.67;;;;;;;26.68;29.19;99694.91;5026210;28;20049;-72
2022/06/24 09:20:25;;;;;;;12.95;2.67;;;;;;;27.62;28.04;99685.53;5026203;28;20135;-69
2022/06/24 09:23:02;;;;;;;20.90;3.05;;;;;;;28.47;26.80;99686.19;5028470;28;20053;-69
2022/06/24 09:25:40;;;;;;;9.38;2.33;;;;;;;29.43;25.83;99689.34;5020594;28;20552;-69
2022/06/24 09:28:07;;;;;;;9.75;2.72;;;;;;;30.00;25.11;99692.31;5020184;28;20413;-73
2022/06/24 09:30:35;;;;;;;12.07;3.00;;;;;;;30.55;24.31;99685.13;5012761;28;20045;-73
2022/06/24 09:33:02;;;;;;;8.23;2.50;;;;;;;30.47;24.45;99689.22;5010400;28;20045;-74
2022/06/24 09:35:35;;;;;;;12.65;2.88;;;;;;;31.22;23.63;99677.72;5022710;28;20041;-72
2022/06/24 09:38:01;;;;;;;10.73;2.85;;;;;;;31.85;23.05;99670.91;5029544;28;20515;-71
2022/06/24 09:40:29;;;;;;;11.85;2.58;;;;;;;32.53;22.53;99679.63;5018790;28;20057;-73
2022/06/24 09:42:58;;;;;;;8.70;2.60;;;;;;;32.81;21.45;99671.88;5015150;28;20073;-73
2022/06/24 09:45:25;;;;;;;11.45;2.67;;;;;;;32.15;22.15;99674.13;5015111;28;20041;-73
2022/06/24 09:47:53;;;;;;;8.05;2.70;;;;;;;32.42;21.92;99674.16;5010936;28;20061;-73
2022/06/24 09:50:20;;;;;;;10.93;3.13;;;;;;;32.89;21.21;99664.06;5015601;28;20041;-74
2022/06/24 09:52:49;;;;;;;10.90;2.72;;;;;;;32.93;21.49;99670.50;5011912;28;20058;-73
2022/06/24 09:55:16;;;;;;;10.10;2.60;;;;;;;33.29;20.53;99663.34;4673044;28;10000558;-72
2022/06/24 09:57:42;;;;;;;8.13;2.50;;;;;;;33.23;20.84;99665.88;5018155;28;20140;-72
2022/06/24 10:02:56;;;;;;;12.65;2.60;;;;;;;33.83;19.68;99653.75;5023289;28;20064;-72
2022/06/24 10:05:26;;;;;;;10.05;2.42;;;;;;;32.74;21.57;99649.38;5016354;28;20341;-73
2022/06/24 10:07:56;;;;;;;18.50;3.00;;;;;;;32.41;22.14;99654.78;5005754;28;20049;-74
2022/06/24 10:10:22;;;;;;;8.10;2.95;;;;;;;32.44;21.38;99637.75;5017204;28;20045;-73
2022/06/24 10:12:53;;;;;;;21.17;3.53;;;;;;;32.58;21.60;99652.88;5012720;28;20049;-73
2022/06/24 10:15:20;;;;;;;7.07;2.58;;;;;;;32.94;20.94;99658.75;5020137;28;20438;-72
2022/06/24 10:17:47;;;;;;;9.38;2.70;;;;;;;33.58;20.53;99663.56;5025848;28;20139;-73
2022/06/24 10:20:16;;;;;;;8.65;2.90;;;;;;;34.26;19.50;99654.78;5027705;28;20048;-73
2022/06/24 10:22:43;;;;;;;10.82;2.70;;;;;;;34.89;18.68;99652.00;5023442;28;20045;-73
2022/06/24 10:25:16;;;;;;;7.63;2.55;;;;;;;35.43;18.57;99644.84;5026861;28;20049;-73
2022/06/24 10:28:05;;;;;;;12.23;2.70;;;;;;;35.12;18.72;99656.69;5021110;28;20064;-72
2022/06/24 10:30:57;;;;;;;10.15;3.13;;;;;;;34.80;18.76;99655.50;5024149;28;20045;-72
2022/06/24 10:33:27;;;;;;;13.55;3.00;;;;;;;34.77;18.33;99651.53;5012194;28;20354;-72
2022/06/24 10:35:57;;;;;;;8.70;3.10;;;;;;;34.84;18.52;99655.41;5018007;28;20132;-72
2022/06/24 10:38:25;;;;;;;7.68;2.75;;;;;;;35.53;17.98;99647.88;5020199;28;20049;-71
2022/06/24 10:40:52;;;;;;;10.15;3.00;;;;;;;36.00;17.72;99647.22;5026492;28;20127;-73
2022/06/24 10:43:43;;;;;;;12.85;3.08;;;;;;;36.16;17.38;99651.22;5021210;28;20080;-72
2022/06/24 10:46:19;;;;;;;10.48;3.10;;;;;;;36.40;17.78;99642.34;5007821;28;20468;-73
2022/06/24 10:48:59;;;;;;;9.20;2.88;;;;;;;36.52;17.54;99647.19;5004895;28;20144;-72
2022/06/24 10:51:28;;;;;;;13.65;3.17;;;;;;;36.26;17.10;99641.56;5023457;28;20045;-71
2022/06/24 10:54:13;;;;;;;9.43;3.15;;;;;;;36.48;16.92;99638.78;5022758;28;20045;-72
2022/06/24 10:56:43;;;;;;;14.52;3.00;;;;;;;36.31;16.64;99646.66;5026906;28;20058;-72
2022/06/24 10:59:09;;;;;;;8.65;2.97;;;;;;;36.10;16.86;99644.53;5026397;28;20148;-69
2022/06/24 11:01:40;;;;;;;10.70;2.95;;;;;;;36.47;16.62;99639.25;5026937;28;20127;-68
2022/06/24 11:04:09;;;;;;;10.75;3.13;;;;;;;36.55;16.92;99640.63;5025596;28;20045;-67
2022/06/24 11:06:35;;;;;;;8.05;3.10;;;;;;;36.47;16.91;99634.34;5024507;28;20462;-68
2022/06/24 11:09:05;;;;;;;11.25;3.20;;;;;;;37.13;16.62;99634.97;5007318;28;20080;-68
2022/06/24 11:11:32;;;;;;;7.95;3.20;;;;;;;37.17;16.22;99627.09;5026943;28;20045;-67
2022/06/24 11:14:00;;;;;;;12.45;3.20;;;;;;;37.43;16.26;99626.94;5026574;28;20214;-69
2022/06/24 11:16:27;;;;;;;10.35;3.17;;;;;;;37.25;16.21;99634.13;5025878;28;20468;-68
2022/06/24 11:18:53;;;;;;;7.57;3.30;;;;;;;37.31;16.04;99617.19;5025282;28;20079;-68
2022/06/24 11:21:19;;;;;;;15.00;3.65;;;;;;;36.75;16.25;99626.09;5017551;28;20049;-69
2022/06/24 11:23:46;;;;;;;;;;;;;;;36.84;16.03;99633.94;5019419;28;20049;-68
2022/06/24 11:26:14;;;;;;;9.32;3.20;;;;;;;37.15;16.04;99627.56;5023887;28;19948;-68
2022/06/24 11:28:42;;;;;;;7.35;3.15;;;;;;;37.37;15.67;99628.78;5019734;28;20128;-67
2022/06/24 11:31:18;;;;;;;12.70;3.50;;;;;;;37.22;15.86;99639.94;5016902;28;20046;-73
2022/06/24 11:33:46;;;;;;;10.00;2.97;;;;;;;37.89;15.33;99620.69;5014352;28;20084;-73
2022/06/24 11:36:14;;;;;;;7.40;3.22;;;;;;;38.58;14.66;99632.19;5018921;28;20041;-67
2022/06/24 11:38:51;;;;;;;8.95;3.13;;;;;;;38.69;14.68;99626.00;5024456;28;20099;-68
2022/06/24 11:41:24;;;;;;;9.60;3.17;;;;;;;38.60;14.75;99615.38;5020412;28;20631;-67